Time;durP1;ratioP1;P1;durP2;ratioP2;P2;SDS_P1;SDS_P2;PMS_P1;PMS_P2;Temp;Humidity;BMP_temperature;BMP_pressure;BME280_temperature;BME280_humidity;BME280_pressure;Samples;Min_cycle;Max_cycle;Signal;HPM_P1;HPM_P2
2022/07/09 00:01:38;;;;;;;36.75;19.75;;;;;;;17.11;100.00;102494.94;5046151;28;20029;-82
2022/07/09 00:04:04;;;;;;;35.90;19.25;;;;;;;17.19;100.00;102494.34;5034087;28;20750;-82
2022/07/09 00:06:31;;;;;;;36.60;20.33;;;;;;;17.22;100.00;102489.44;5024348;28;20504;-82
2022/07/09 00:08:58;;;;;;;34.63;20.33;;;;;;;17.18;100.00;102484.25;5044606;28;20029;-83
2022/07/09 00:11:24;;;;;;;36.92;20.73;;;;;;;17.09;100.00;102481.22;5038868;28;20033;-82
2022/07/09 00:13:49;;;;;;;34.63;20.80;;;;;;;17.09;100.00;102486.75;5033085;28;20044;-82
2022/07/09 00:16:15;;;;;;;41.70;21.23;;;;;;;17.00;100.00;102470.03;5040523;28;20036;-82
2022/07/09 00:18:40;;;;;;;38.20;21.58;;;;;;;16.97;100.00;102476.69;5039807;28;20481;-82
2022/07/09 00:21:06;;;;;;;31.75;20.25;;;;;;;16.95;100.00;102472.28;5044901;28;20037;-82
2022/07/09 00:23:32;;;;;;;27.70;19.55;;;;;;;16.98;100.00;102475.69;5043457;28;20063;-82
2022/07/09 00:25:58;;;;;;;35.58;21.67;;;;;;;16.89;100.00;102468.13;5051418;28;20029;-82
2022/07/09 00:28:24;;;;;;;41.53;22.60;;;;;;;16.85;100.00;102470.25;5050042;28;20550;-81
2022/07/09 00:30:50;;;;;;;36.17;21.25;;;;;;;16.87;100.00;102470.13;5027641;28;20034;-81
2022/07/09 00:33:15;;;;;;;38.45;22.25;;;;;;;16.79;100.00;102476.25;5053743;28;20048;-81
2022/07/09 00:35:41;;;;;;;35.22;21.42;;;;;;;16.78;100.00;102476.38;5043177;28;20384;-82
2022/07/09 00:38:07;;;;;;;36.45;21.00;;;;;;;16.81;100.00;102478.91;5047665;28;20040;-81
2022/07/09 00:40:34;;;;;;;35.78;20.48;;;;;;;16.81;100.00;102476.13;5051819;28;20061;-82
2022/07/09 00:43:00;;;;;;;34.45;21.30;;;;;;;16.76;100.00;102468.19;5033392;28;20396;-82
2022/07/09 00:45:26;;;;;;;41.58;20.63;;;;;;;16.97;100.00;102473.94;5020593;28;20083;-81
2022/07/09 00:47:52;;;;;;;33.47;21.23;;;;;;;17.04;100.00;102475.19;5041949;28;20041;-82
2022/07/09 00:50:18;;;;;;;38.70;20.67;;;;;;;17.01;100.00;102471.78;5052379;28;20101;-82
2022/07/09 00:52:44;;;;;;;35.95;21.42;;;;;;;16.93;100.00;102461.34;5052056;28;20029;-82
2022/07/09 00:55:11;;;;;;;39.83;20.15;;;;;;;16.98;100.00;102464.59;5047225;28;20040;-82
2022/07/09 00:57:38;;;;;;;39.60;19.90;;;;;;;16.97;100.00;102473.03;5035152;28;20481;-82
2022/07/09 01:00:05;;;;;;;34.67;20.48;;;;;;;16.85;100.00;102473.00;5028094;28;20033;-82
2022/07/09 01:02:30;;;;;;;34.78;20.35;;;;;;;16.93;100.00;102469.63;5032253;28;20032;-82
2022/07/09 01:04:56;;;;;;;36.67;20.95;;;;;;;16.89;100.00;102463.47;5010722;28;20094;-82
2022/07/09 01:07:23;;;;;;;40.38;20.15;;;;;;;16.89;100.00;102469.00;5050511;28;20040;-81
2022/07/09 01:09:48;;;;;;;38.88;20.80;;;;;;;16.88;100.00;102474.66;5030515;28;20043;-82
2022/07/09 01:12:14;;;;;;;43.65;20.98;;;;;;;16.89;100.00;102462.59;5027933;28;20136;-82
2022/07/09 01:14:39;;;;;;;32.83;19.92;;;;;;;16.86;100.00;102468.38;5036608;28;20047;-81
2022/07/09 01:17:06;;;;;;;35.20;20.23;;;;;;;16.75;100.00;102460.03;5045697;28;20029;-82
2022/07/09 01:19:32;;;;;;;34.10;19.15;;;;;;;16.81;100.00;102474.25;5037225;28;20960;-82
2022/07/09 01:21:59;;;;;;;31.90;19.70;;;;;;;16.84;100.00;102475.88;5045398;28;20407;-81
2022/07/09 01:24:25;;;;;;;38.67;19.58;;;;;;;16.71;100.00;102454.72;5036535;28;20030;-82
2022/07/09 01:26:52;;;;;;;37.10;19.73;;;;;;;16.67;100.00;102471.69;5052740;28;20028;-82
2022/07/09 01:29:18;;;;;;;33.25;20.65;;;;;;;16.62;100.00;102462.88;5059671;28;20027;-82
2022/07/09 01:31:44;;;;;;;35.40;20.65;;;;;;;16.53;100.00;102453.44;5041746;28;20065;-82
2022/07/09 01:34:09;;;;;;;39.45;21.30;;;;;;;16.62;100.00;102458.22;5040703;28;20057;-82
2022/07/09 01:36:35;;;;;;;33.88;21.60;;;;;;;16.65;100.00;102451.56;5007549;28;20369;-82
2022/07/09 01:39:00;;;;;;;38.38;19.92;;;;;;;16.65;100.00;102446.91;5024066;28;20037;-81
2022/07/09 01:41:26;;;;;;;48.20;20.65;;;;;;;16.65;100.00;102452.44;5025879;28;20025;-80
2022/07/09 01:43:51;;;;;;;34.75;21.95;;;;;;;16.37;100.00;102417.81;5050308;28;20045;-82
2022/07/09 01:46:17;;;;;;;37.28;21.95;;;;;;;16.46;100.00;102441.06;5036673;28;20046;-82
2022/07/09 01:48:42;;;;;;;39.58;22.15;;;;;;;16.40;100.00;102428.63;4997724;28;20040;-82
2022/07/09 01:51:09;;;;;;;40.58;22.27;;;;;;;16.40;100.00;102436.03;5024068;28;20132;-80
2022/07/09 01:53:35;;;;;;;37.60;20.85;;;;;;;16.44;100.00;102446.72;5031858;28;20025;-82
2022/07/09 01:56:09;;;;;;;37.75;21.02;;;;;;;16.36;100.00;102432.63;5026447;28;20029;-82
2022/07/09 01:58:35;;;;;;;40.30;22.35;;;;;;;16.31;100.00;102435.75;5020994;28;20029;-82
2022/07/09 02:01:01;;;;;;;39.63;21.60;;;;;;;16.39;100.00;102429.63;5035275;28;20033;-81
2022/07/09 02:03:27;;;;;;;42.70;22.67;;;;;;;16.28;100.00;102437.88;5035196;28;20044;-82
2022/07/09 02:05:52;;;;;;;41.65;23.10;;;;;;;16.17;100.00;102427.69;5025552;28;20041;-82
2022/07/09 02:08:18;;;;;;;47.13;23.33;;;;;;;16.27;100.00;102430.59;5007619;28;20038;-82
2022/07/09 02:10:45;;;;;;;40.20;23.23;;;;;;;16.27;100.00;102433.38;5040847;28;20108;-82
2022/07/09 02:13:12;;;;;;;38.78;21.80;;;;;;;16.12;100.00;102413.34;5013251;28;20400;-82
2022/07/09 02:15:37;;;;;;;40.38;21.67;;;;;;;16.12;100.00;102425.25;5045483;28;20033;-80
2022/07/09 02:18:04;;;;;;;42.30;21.35;;;;;;;16.12;100.00;102421.63;5043881;28;20025;-82
2022/07/09 02:20:29;;;;;;;34.95;21.60;;;;;;;15.97;100.00;102418.13;5057085;28;20551;-82
2022/07/09 02:22:57;;;;;;;38.50;23.48;;;;;;;15.90;100.00;102420.50;5043594;28;20029;-81
2022/07/09 02:25:23;;;;;;;37.97;23.58;;;;;;;15.79;100.00;102421.34;5048467;28;20030;-82
2022/07/09 02:27:48;;;;;;;45.50;24.75;;;;;;;15.76;100.00;102417.94;5041989;28;20052;-83
2022/07/09 02:30:13;;;;;;;57.10;26.23;;;;;;;15.75;100.00;102425.28;5043007;28;20037;-82
2022/07/09 02:32:39;;;;;;;53.95;24.70;;;;;;;15.69;100.00;102424.88;5037872;28;20496;-82
2022/07/09 02:35:05;;;;;;;42.42;24.58;;;;;;;15.63;100.00;102424.34;5013872;28;20504;-81
2022/07/09 02:37:32;;;;;;;50.92;26.55;;;;;;;15.56;100.00;102409.25;5012458;28;20036;-81
2022/07/09 02:39:57;;;;;;;49.65;25.48;;;;;;;15.59;100.00;102417.31;5015352;28;20674;-82
2022/07/09 02:42:23;;;;;;;51.38;25.40;;;;;;;15.52;100.00;102415.09;5030246;28;20060;-82
2022/07/09 02:44:49;;;;;;;53.28;26.65;;;;;;;15.53;100.00;102397.56;5051077;28;20068;-82
2022/07/09 02:47:14;;;;;;;48.75;25.60;;;;;;;15.57;100.00;102397.19;5042289;28;20029;-82
2022/07/09 02:49:40;;;;;;;53.83;25.73;;;;;;;15.59;100.00;102408.13;5007775;28;20037;-82
2022/07/09 02:52:06;;;;;;;49.35;24.02;;;;;;;15.59;100.00;102400.75;5031272;28;20132;-82
2022/07/09 02:54:32;;;;;;;48.10;25.75;;;;;;;15.65;100.00;102404.91;5028265;28;20033;-82
2022/07/09 02:56:57;;;;;;;49.35;24.88;;;;;;;15.59;100.00;102400.75;5035667;28;20034;-82
2022/07/09 02:59:23;;;;;;;54.95;26.25;;;;;;;15.49;100.00;102391.34;5055056;28;20068;-83
2022/07/09 03:01:48;;;;;;;52.63;26.88;;;;;;;15.61;100.00;102406.16;5038428;28;20052;-82
2022/07/09 03:04:14;;;;;;;53.13;26.73;;;;;;;15.63;100.00;102396.72;5039947;28;20116;-82
2022/07/09 03:06:39;;;;;;;55.67;28.80;;;;;;;15.61;100.00;102387.69;5024381;28;20033;-82
2022/07/09 03:09:06;;;;;;;51.97;27.33;;;;;;;15.57;100.00;102397.19;5034992;28;20388;-82
2022/07/09 03:11:32;;;;;;;54.28;27.60;;;;;;;15.63;100.00;102390.34;5046034;28;20039;-82
2022/07/09 03:13:57;;;;;;;51.90;26.08;;;;;;;15.53;100.00;102394.81;5040804;28;20056;-82
2022/07/09 03:16:23;;;;;;;55.63;25.95;;;;;;;15.54;100.00;102402.94;5029163;28;20477;-83
2022/07/09 03:18:48;;;;;;;42.60;25.27;;;;;;;15.43;100.00;102401.00;5019454;28;20436;-82
2022/07/09 03:21:14;;;;;;;48.10;26.27;;;;;;;15.49;100.00;102384.97;5042245;28;20030;-83
2022/07/09 03:23:39;;;;;;;48.63;26.80;;;;;;;15.43;100.00;102389.97;5040538;28;20040;-82
2022/07/09 03:26:06;;;;;;;54.45;27.05;;;;;;;15.37;100.00;102397.81;5043427;28;20037;-82
2022/07/09 03:28:32;;;;;;;55.58;23.25;;;;;;;15.47;100.00;102401.66;5031081;28;20049;-82
2022/07/09 03:30:58;;;;;;;52.17;25.00;;;;;;;15.49;100.00;102396.88;5048062;28;20054;-82
2022/07/09 03:33:24;;;;;;;49.25;26.63;;;;;;;15.43;100.00;102395.47;5042152;28;20048;-82
2022/07/09 03:35:49;;;;;;;50.90;28.95;;;;;;;15.46;100.00;102388.81;5039281;28;20041;-82
2022/07/09 03:38:15;;;;;;;58.05;30.25;;;;;;;15.43;100.00;102380.81;5043954;28;20033;-82
2022/07/09 03:40:40;;;;;;;54.13;30.00;;;;;;;15.55;100.00;102384.50;5039744;28;20120;-82
2022/07/09 03:43:06;;;;;;;55.15;28.75;;;;;;;15.48;100.00;102378.56;5025742;28;20037;-82
2022/07/09 03:45:32;;;;;;;48.05;29.33;;;;;;;15.54;100.00;102391.03;5049625;28;20093;-81
2022/07/09 03:47:57;;;;;;;62.08;28.80;;;;;;;15.52;100.00;102398.53;5037324;28;20039;-82
2022/07/09 03:50:23;;;;;;;54.30;28.55;;;;;;;15.37;100.00;102393.19;5030333;28;20034;-82
2022/07/09 03:52:48;;;;;;;55.47;28.45;;;;;;;15.43;100.00;102409.28;5023769;28;20025;-82
2022/07/09 03:55:14;;;;;;;63.33;27.85;;;;;;;15.39;100.00;102395.81;5048803;28;20028;-82
2022/07/09 03:57:39;;;;;;;58.15;29.52;;;;;;;15.31;100.00;102399.16;5045831;28;20034;-81
2022/07/09 04:00:06;;;;;;;62.58;28.17;;;;;;;15.39;100.00;102409.63;5020738;28;20060;-81
2022/07/09 04:02:32;;;;;;;68.22;30.65;;;;;;;15.40;100.00;102397.59;5039390;28;20087;-81
2022/07/09 04:04:58;;;;;;;59.33;29.55;;;;;;;15.31;100.00;102396.38;5040067;28;20490;-82
2022/07/09 04:07:26;;;;;;;60.80;31.52;;;;;;;15.35;100.00;102405.34;5050258;28;20041;-82
2022/07/09 04:09:55;;;;;;;67.05;33.72;;;;;;;15.40;100.00;102394.84;5054617;28;20029;-82
2022/07/09 04:12:21;;;;;;;65.00;33.63;;;;;;;15.56;100.00;102394.53;5036046;28;20086;-82
2022/07/09 04:14:46;;;;;;;68.65;31.70;;;;;;;15.56;100.00;102406.50;5030882;28;20434;-81
2022/07/09 04:17:12;;;;;;;67.13;32.10;;;;;;;15.55;100.00;102396.44;5024693;28;20052;-81
2022/07/09 04:19:37;;;;;;;70.75;33.42;;;;;;;15.53;100.00;102398.44;5021234;28;20044;-81
2022/07/09 04:22:04;;;;;;;65.47;31.33;;;;;;;15.57;100.00;102405.47;5073547;28;20045;-81
2022/07/09 04:24:29;;;;;;;65.80;32.35;;;;;;;15.59;100.00;102397.97;5029379;28;20064;-81
2022/07/09 04:26:55;;;;;;;69.50;31.42;;;;;;;15.62;100.00;102406.00;5026325;28;20037;-81
2022/07/09 04:29:21;;;;;;;72.78;32.97;;;;;;;15.67;100.00;102397.38;5041233;28;20061;-81
2022/07/09 04:31:46;;;;;;;72.55;33.20;;;;;;;15.70;100.00;102401.78;5020569;28;20086;-82
2022/07/09 04:34:12;;;;;;;71.78;33.22;;;;;;;15.74;100.00;102397.78;5028154;28;20103;-81
2022/07/09 04:36:37;;;;;;;59.75;29.63;;;;;;;15.83;100.00;102408.16;5041754;28;20032;-81
2022/07/09 04:39:04;;;;;;;65.25;31.52;;;;;;;15.79;100.00;102393.72;5044593;28;20036;-81
2022/07/09 04:41:29;;;;;;;56.53;28.05;;;;;;;15.87;100.00;102406.03;5030591;28;20087;-81
2022/07/09 04:43:55;;;;;;;56.80;28.77;;;;;;;15.72;100.00;102399.78;5036566;28;20037;-81
2022/07/09 04:46:22;;;;;;;67.32;30.75;;;;;;;15.80;100.00;102406.50;5046054;28;20026;-81
2022/07/09 04:48:48;;;;;;;57.20;29.00;;;;;;;15.89;100.00;102407.69;5014642;28;20029;-81
2022/07/09 04:51:14;;;;;;;62.47;29.38;;;;;;;15.88;100.00;102397.63;5023110;28;20124;-81
2022/07/09 04:53:39;;;;;;;55.38;29.15;;;;;;;15.96;100.00;102408.13;5017389;28;20061;-80
2022/07/09 04:56:06;;;;;;;57.03;28.63;;;;;;;16.01;100.00;102400.34;5036322;28;20080;-80
2022/07/09 04:58:32;;;;;;;60.17;30.05;;;;;;;15.99;100.00;102394.94;5015607;28;20563;-81
2022/07/09 05:00:58;;;;;;;60.83;30.15;;;;;;;16.13;100.00;102395.72;5045849;28;20029;-82
2022/07/09 05:03:24;;;;;;;61.22;28.65;;;;;;;16.16;100.00;102401.03;5024523;28;20427;-82
2022/07/09 05:05:51;;;;;;;61.58;30.05;;;;;;;16.25;100.00;102396.66;5026667;28;20041;-82
2022/07/09 05:08:17;;;;;;;59.60;29.48;;;;;;;16.29;100.00;102388.00;5010294;28;20045;-81
2022/07/09 05:10:42;;;;;;;62.83;30.27;;;;;;;16.32;100.00;102390.53;5052293;28;20481;-81
2022/07/09 05:13:08;;;;;;;62.78;30.00;;;;;;;16.35;100.00;102382.00;5021730;28;20036;-80
2022/07/09 05:15:34;;;;;;;54.10;28.80;;;;;;;16.35;100.00;102393.06;5011394;28;20116;-82
2022/07/09 05:17:59;;;;;;;54.78;28.67;;;;;;;16.25;100.00;102392.03;5044384;28;20096;-82
2022/07/09 05:20:26;;;;;;;52.75;28.40;;;;;;;16.22;100.00;102389.50;5058416;28;20022;-81
2022/07/09 05:22:51;;;;;;;67.07;28.48;;;;;;;16.32;100.00;102390.53;5045717;28;20464;-79
2022/07/09 05:25:17;;;;;;;73.93;31.05;;;;;;;16.37;100.00;102392.06;5038883;28;20061;-78
2022/07/09 05:27:46;;;;;;;56.30;30.10;;;;;;;16.44;100.00;102399.72;5017974;28;20041;-78
2022/07/09 05:30:16;;;;;;;58.80;31.38;;;;;;;16.40;100.00;102394.56;5026223;28;20037;-77
2022/07/09 05:32:42;;;;;;;64.25;31.33;;;;;;;16.65;100.00;102401.78;5036922;28;20029;-77
2022/07/09 05:35:08;;;;;;;60.85;33.63;;;;;;;17.00;100.00;102398.06;5031490;28;20470;-78
2022/07/09 05:37:40;;;;;;;61.17;32.42;;;;;;;17.35;100.00;102402.56;5042041;28;20041;-77
2022/07/09 05:40:06;;;;;;;66.43;34.22;;;;;;;17.62;100.00;102397.47;5028156;28;20424;-77
2022/07/09 05:42:32;;;;;;;60.28;33.63;;;;;;;17.51;100.00;102397.53;5035556;28;20083;-77
2022/07/09 05:44:58;;;;;;;69.28;34.97;;;;;;;17.50;100.00;102395.78;5035878;28;20035;-77
2022/07/09 05:47:25;;;;;;;76.80;36.50;;;;;;;17.52;100.00;102399.28;5036541;28;20037;-78
2022/07/09 05:49:50;;;;;;;82.25;39.30;;;;;;;17.42;100.00;102401.06;5023806;28;20029;-78
2022/07/09 05:52:15;;;;;;;70.63;37.67;;;;;;;17.71;100.00;102398.63;5015668;28;20091;-77
2022/07/09 05:54:41;;;;;;;69.53;36.92;;;;;;;17.88;100.00;102397.19;5038146;28;20036;-77
2022/07/09 05:57:06;;;;;;;74.30;36.45;;;;;;;17.96;100.00;102385.47;5014443;28;20076;-77
2022/07/09 05:59:32;;;;;;;71.03;36.08;;;;;;;17.87;100.00;102387.13;5043642;28;20068;-77
2022/07/09 06:01:58;;;;;;;72.88;36.88;;;;;;;18.18;100.00;102390.91;5038900;28;20421;-77
2022/07/09 06:04:23;;;;;;;67.30;35.70;;;;;;;18.58;100.00;102386.53;5028987;28;20037;-77
2022/07/09 06:06:49;;;;;;;68.30;34.55;;;;;;;18.92;100.00;102392.72;5040014;28;20060;-76
2022/07/09 06:09:14;;;;;;;62.47;33.42;;;;;;;18.90;100.00;102396.66;5037131;28;20545;-77
2022/07/09 06:11:40;;;;;;;64.40;30.23;;;;;;;18.94;100.00;102392.59;5051664;28;20040;-77
2022/07/09 06:14:05;;;;;;;59.28;30.80;;;;;;;19.01;100.00;102388.22;5056939;28;20045;-77
2022/07/09 06:16:32;;;;;;;54.67;30.02;;;;;;;19.75;100.00;102386.09;5037621;28;20029;-77
2022/07/09 06:18:57;;;;;;;54.75;29.45;;;;;;;19.88;100.00;102391.44;5034325;28;20040;-77
2022/07/09 06:21:23;;;;;;;49.47;26.70;;;;;;;20.07;100.00;102398.88;5047855;28;20041;-77
2022/07/09 06:23:48;;;;;;;44.88;23.92;;;;;;;20.13;100.00;102392.75;5033707;28;20513;-77
2022/07/09 06:26:14;;;;;;;40.97;23.95;;;;;;;20.24;100.00;102394.50;5033514;28;20034;-77
2022/07/09 06:28:39;;;;;;;39.75;23.63;;;;;;;19.88;100.00;102391.44;5040182;28;20037;-77
2022/07/09 06:31:10;;;;;;;43.30;23.50;;;;;;;20.23;100.00;102399.16;5038371;28;20029;-77
2022/07/09 06:33:35;;;;;;;41.72;20.92;;;;;;;20.55;100.00;102396.06;5035649;28;20060;-77
2022/07/09 06:36:01;;;;;;;44.60;24.30;;;;;;;20.29;100.00;102387.47;5049030;28;20033;-77
2022/07/09 06:38:30;;;;;;;44.58;24.08;;;;;;;20.19;100.00;102394.94;5046910;28;20400;-77
2022/07/09 06:40:56;;;;;;;39.50;24.80;;;;;;;20.24;100.00;102395.38;5040157;28;20083;-77
2022/07/09 06:43:22;;;;;;;29.50;17.92;;;;;;;20.15;100.00;102397.16;5042152;28;20045;-77
2022/07/09 06:45:48;;;;;;;38.22;20.92;;;;;;;20.47;100.00;102392.28;5037424;28;20042;-77
2022/07/09 06:48:13;;;;;;;39.85;22.17;;;;;;;20.03;100.00;102398.31;5004335;28;20037;-76
2022/07/09 06:50:39;;;;;;;37.70;22.23;;;;;;;20.11;100.00;102398.44;5031012;28;20095;-76
2022/07/09 06:53:04;;;;;;;37.17;22.38;;;;;;;19.99;100.00;102394.06;5026233;28;20064;-76
2022/07/09 06:55:30;;;;;;;38.15;21.23;;;;;;;19.90;100.00;102381.91;5040327;28;20045;-76
2022/07/09 06:57:57;;;;;;;37.50;22.10;;;;;;;20.13;100.00;102401.09;5044025;28;20123;-78
2022/07/09 07:00:23;;;;;;;38.90;20.60;;;;;;;19.71;100.00;102395.75;5042566;28;20048;-76
2022/07/09 07:02:49;;;;;;;39.83;22.40;;;;;;;19.80;100.00;102393.00;5046956;28;20215;-76
2022/07/09 07:05:15;;;;;;;32.78;20.42;;;;;;;20.14;100.00;102400.94;5047240;28;20040;-76
2022/07/09 07:07:41;;;;;;;35.75;20.48;;;;;;;20.68;100.00;102401.34;5036811;28;20400;-76
2022/07/09 07:10:08;;;;;;;36.20;20.75;;;;;;;20.33;100.00;102404.72;5048555;28;20030;-76
2022/07/09 07:12:34;;;;;;;35.88;20.85;;;;;;;20.86;100.00;102401.44;5041764;28;20136;-76
2022/07/09 07:14:59;;;;;;;39.72;21.77;;;;;;;20.53;100.00;102408.38;5038136;28;20095;-76
2022/07/09 07:17:25;;;;;;;28.95;18.40;;;;;;;20.75;100.00;102408.06;5038441;28;20049;-76
2022/07/09 07:19:50;;;;;;;34.05;17.30;;;;;;;21.95;100.00;102406.31;5045078;28;20099;-76
2022/07/09 07:22:16;;;;;;;34.83;19.17;;;;;;;22.32;100.00;102412.81;5021141;28;20138;-76
2022/07/09 07:24:41;;;;;;;33.63;20.23;;;;;;;21.45;100.00;102409.56;5036484;28;20064;-76
2022/07/09 07:27:07;;;;;;;32.20;19.98;;;;;;;21.50;100.00;102400.75;5036415;28;20112;-77
2022/07/09 07:29:32;;;;;;;34.38;21.15;;;;;;;22.39;100.00;102397.16;5040839;28;20045;-76
2022/07/09 07:31:59;;;;;;;36.28;21.80;;;;;;;22.18;100.00;102400.25;5045543;28;20040;-76
2022/07/09 07:34:25;;;;;;;33.88;20.55;;;;;;;22.40;100.00;102398.94;5037007;28;20049;-76
2022/07/09 07:36:51;;;;;;;35.15;20.40;;;;;;;22.88;100.00;102391.06;5041253;28;20425;-75
2022/07/09 07:39:18;;;;;;;35.00;21.13;;;;;;;22.61;100.00;102397.66;5037005;28;20037;-76
2022/07/09 07:41:44;;;;;;;29.73;20.33;;;;;;;22.80;100.00;102400.25;5051898;28;20087;-75
2022/07/09 07:44:09;;;;;;;28.08;17.55;;;;;;;23.62;100.00;102392.28;5050874;28;20040;-75
2022/07/09 07:46:35;;;;;;;29.20;19.00;;;;;;;23.24;100.00;102394.59;5047715;28;20032;-75
2022/07/09 07:49:00;;;;;;;25.85;17.77;;;;;;;23.46;100.00;102400.63;5047002;28;20116;-75
2022/07/09 07:51:26;;;;;;;24.80;17.33;;;;;;;23.47;100.00;102394.84;5047347;28;20481;-75
2022/07/09 07:53:51;;;;;;;29.48;17.25;;;;;;;23.23;100.00;102403.13;5045885;28;20041;-75
2022/07/09 07:56:17;;;;;;;31.52;18.63;;;;;;;23.29;100.00;102397.75;5028316;28;20041;-75
2022/07/09 07:58:42;;;;;;;31.27;19.20;;;;;;;22.61;100.00;102404.13;5035614;28;20029;-76
2022/07/09 08:01:08;;;;;;;37.40;20.00;;;;;;;22.21;100.00;102395.22;5033887;28;20501;-76
2022/07/09 08:03:33;;;;;;;35.05;18.77;;;;;;;22.11;100.00;102390.78;5043665;28;20025;-76
2022/07/09 08:06:00;;;;;;;21.17;14.75;;;;;;;22.13;100.00;102400.72;5033650;28;20068;-76
2022/07/09 08:08:25;;;;;;;20.50;13.35;;;;;;;21.80;100.00;102399.53;5040103;28;20056;-76
2022/07/09 08:10:51;;;;;;;19.70;13.10;;;;;;;21.97;100.00;102403.34;5035263;28;20059;-76
2022/07/09 08:13:17;;;;;;;22.95;12.55;;;;;;;21.72;100.00;102397.53;5051250;28;20139;-77
2022/07/09 08:15:44;;;;;;;17.08;11.00;;;;;;;21.94;100.00;102386.94;5025416;28;20124;-76
2022/07/09 08:18:12;;;;;;;19.73;12.60;;;;;;;22.11;100.00;102388.84;5047343;28;20033;-76
2022/07/09 08:20:41;;;;;;;18.13;11.77;;;;;;;22.39;100.00;102391.56;5052872;28;20037;-76
2022/07/09 08:23:07;;;;;;;22.13;12.65;;;;;;;22.78;100.00;102380.00;5036961;28;20442;-76
2022/07/09 08:25:33;;;;;;;19.70;12.13;;;;;;;23.40;100.00;102377.03;5039800;28;20397;-77
2022/07/09 08:27:59;;;;;;;32.85;13.35;;;;;;;23.38;100.00;102369.84;5032011;28;20075;-77
2022/07/09 08:30:24;;;;;;;19.60;12.73;;;;;;;23.64;100.00;102369.75;5034921;28;20029;-77
2022/07/09 08:32:50;;;;;;;23.52;12.55;;;;;;;23.75;100.00;102363.81;5034530;28;20032;-77
2022/07/09 08:35:15;;;;;;;22.02;13.07;;;;;;;23.76;100.00;102361.88;5019667;28;20443;-76
2022/07/09 08:37:41;;;;;;;25.23;12.93;;;;;;;24.32;100.00;102356.56;5038865;28;20094;-77
2022/07/09 08:40:07;;;;;;;21.60;12.63;;;;;;;24.24;100.00;102360.22;5017173;28;20051;-77
2022/07/09 08:42:33;;;;;;;19.30;12.57;;;;;;;24.31;100.00;102338.88;5034755;28;20052;-76
2022/07/09 08:44:59;;;;;;;22.05;11.10;;;;;;;24.92;100.00;102342.13;5033944;28;20033;-77
2022/07/09 08:47:25;;;;;;;19.45;12.23;;;;;;;25.36;100.00;102351.94;5045429;28;20087;-77
2022/07/09 08:49:56;;;;;;;15.88;10.57;;;;;;;25.23;100.00;102346.03;5045190;28;20041;-77
2022/07/09 08:52:23;;;;;;;13.13;9.70;;;;;;;24.76;100.00;102343.03;5034608;28;20190;-77
2022/07/09 08:54:49;;;;;;;17.98;11.02;;;;;;;24.67;100.00;102338.50;5033689;28;20061;-77
2022/07/09 08:57:15;;;;;;;14.55;10.02;;;;;;;24.51;100.00;102328.16;5045560;28;20037;-77
2022/07/09 08:59:40;;;;;;;15.25;10.25;;;;;;;24.57;100.00;102326.63;5053733;28;20033;-77
2022/07/09 09:02:09;;;;;;;12.75;9.30;;;;;;;24.91;100.00;102325.50;5036703;28;20496;-77
2022/07/09 09:04:35;;;;;;;14.93;9.93;;;;;;;24.64;100.00;102322.03;5045159;28;20065;-77
2022/07/09 09:07:17;;;;;;;15.88;6.93;;;;;;;24.84;100.00;102327.25;5041900;28;20116;-77
2022/07/09 09:09:43;;;;;;;;;;;;;;;24.35;100.00;102323.50;5045320;28;20123;-78
2022/07/09 09:12:09;;;;;;;10.10;4.72;;;;;;;24.06;100.00;102324.03;5051658;28;20009;-77
2022/07/09 09:14:35;;;;;;;7.90;4.93;;;;;;;24.75;99.81;102329.22;5029686;28;20150;-77
2022/07/09 09:17:14;;;;;;;10.50;4.60;;;;;;;24.51;100.00;102316.97;5039818;28;20045;-77
2022/07/09 09:19:40;;;;;;;10.93;5.78;;;;;;;24.74;100.00;102322.75;5032000;28;20040;-76
2022/07/09 09:22:07;;;;;;;12.85;5.95;;;;;;;24.72;100.00;102323.97;5038082;28;20045;-77
2022/07/09 09:24:34;;;;;;;8.95;5.38;;;;;;;24.62;100.00;102321.34;5050623;28;20537;-76
2022/07/09 09:27:00;;;;;;;11.20;7.30;;;;;;;24.50;100.00;102314.38;5052447;28;20067;-77
2022/07/09 09:29:26;;;;;;;11.35;5.78;;;;;;;24.40;100.00;102318.22;5033465;28;20484;-77
2022/07/09 09:31:52;;;;;;;11.05;5.30;;;;;;;24.12;100.00;102325.22;5036919;28;20025;-77
2022/07/09 09:34:18;;;;;;;14.00;6.38;;;;;;;23.71;100.00;102317.69;5046132;28;20057;-77
2022/07/09 09:36:46;;;;;;;10.88;5.30;;;;;;;23.52;100.00;102315.19;5036089;28;20029;-77
2022/07/09 09:39:19;;;;;;;9.63;5.30;;;;;;;23.75;100.00;102315.41;5049274;28;20369;-77
2022/07/09 09:41:53;;;;;;;10.20;4.85;;;;;;;23.98;100.00;102315.63;5036380;28;20087;-76
2022/07/09 09:44:25;;;;;;;8.52;5.80;;;;;;;23.85;100.00;102316.13;5046321;28;20025;-77
2022/07/09 09:46:51;;;;;;;10.73;5.68;;;;;;;24.07;100.00;102319.28;5044587;28;20040;-75
2022/07/09 09:49:16;;;;;;;10.30;5.43;;;;;;;24.20;100.00;102314.94;5024220;28;20078;-75
2022/07/09 09:51:51;;;;;;;7.50;4.45;;;;;;;24.90;100.00;102318.13;5048108;28;20051;-75
2022/07/09 09:54:19;;;;;;;11.88;5.95;;;;;;;24.85;100.00;102315.84;5039066;28;20025;-76
2022/07/09 09:56:45;;;;;;;10.38;4.75;;;;;;;24.83;100.00;102308.72;5034673;28;20445;-77
2022/07/09 09:59:12;;;;;;;10.77;4.53;;;;;;;25.01;100.00;102320.53;5045252;28;20056;-76
2022/07/09 10:01:39;;;;;;;12.25;5.47;;;;;;;24.57;100.00;102323.81;5046065;28;20068;-77
2022/07/09 10:04:05;;;;;;;12.68;4.93;;;;;;;24.40;100.00;102317.34;5022589;28;20040;-77
2022/07/09 10:06:32;;;;;;;11.45;4.53;;;;;;;23.87;100.00;102307.56;5049999;28;20049;-75
2022/07/09 10:08:57;;;;;;;18.27;5.30;;;;;;;23.67;100.00;102307.88;5045830;28;20047;-76
2022/07/09 10:11:23;;;;;;;7.45;4.60;;;;;;;23.27;100.00;102312.34;5041056;28;20035;-76
2022/07/09 10:13:54;;;;;;;6.97;5.03;;;;;;;23.51;100.00;102313.44;5036499;28;20120;-77
2022/07/09 10:16:32;;;;;;;12.25;5.38;;;;;;;23.84;100.00;102317.19;5026578;28;20037;-75
2022/07/09 10:18:58;;;;;;;11.20;6.88;;;;;;;23.86;100.00;102312.31;5036845;28;20033;-76
2022/07/09 10:21:37;;;;;;;17.30;7.03;;;;;;;24.46;100.00;102310.16;5036881;28;20048;-75
2022/07/09 10:24:06;;;;;;;12.27;8.30;;;;;;;24.42;100.00;102306.84;5041922;28;20038;-76
2022/07/09 10:26:44;;;;;;;18.70;11.02;;;;;;;24.97;100.00;102298.66;5045737;28;20037;-76
2022/07/09 10:29:21;;;;;;;20.08;10.00;;;;;;;25.85;97.36;102300.25;5039473;28;20485;-75
2022/07/09 10:31:47;;;;;;;17.55;11.00;;;;;;;25.18;100.00;102298.03;5031390;28;20108;-75
2022/07/09 10:34:43;;;;;;;22.30;11.93;;;;;;;25.33;96.51;102295.34;5048300;28;20056;-74
2022/07/09 10:37:09;;;;;;;21.92;12.02;;;;;;;24.98;99.97;102300.41;5048872;28;20049;-74
2022/07/09 10:39:35;;;;;;;23.38;13.68;;;;;;;24.81;100.00;102293.97;5041800;28;20040;-76
2022/07/09 10:42:07;;;;;;;22.95;12.55;;;;;;;24.88;100.00;102295.88;5051113;28;20049;-75
2022/07/09 10:44:37;;;;;;;24.55;13.00;;;;;;;24.94;100.00;102299.88;5040933;28;20025;-75
2022/07/09 10:47:06;;;;;;;18.83;14.80;;;;;;;24.81;100.00;102285.56;5032913;28;20048;-75
2022/07/09 10:49:38;;;;;;;20.00;11.82;;;;;;;25.28;100.00;102279.09;5007293;28;20033;-75
2022/07/09 10:52:05;;;;;;;21.58;14.77;;;;;;;24.98;100.00;102284.47;5039069;28;20045;-75
2022/07/09 10:54:31;;;;;;;24.50;15.88;;;;;;;24.84;100.00;102274.91;5036281;28;20172;-74
2022/07/09 10:56:57;;;;;;;25.27;17.95;;;;;;;24.56;100.00;102274.44;5046260;28;20033;-74
2022/07/09 10:59:24;;;;;;;27.20;14.90;;;;;;;24.64;100.00;102271.63;5025892;28;20033;-74